Kelowna International Airport

Airport
ICAO code: 
CYLW
Summary
ICAO Region: 
NAM
Territory: 
Location: 
Kelowna, British Columbia,
Coordinates: 
Aerial View: 
49° 57' 6.964" N, 119° 23' 7.369" W
Airport CFIT: 
Altimeter Temperature Error Correction
Airport RE: 
Crosswind Landings
Metar
Observation
CYLW 042001Z AUTO 18003KT 8SM FEW032 BKN044 OVC055 M01/M01 A2996 RMK SLP166
Station
Kelowna Airport
Date/Time
2021-12-04 20:01:00
Wind direction
180°
Wind speed
03 kts
Lowest cloud amount
few clouds
Temperature
-1°C
Dew point
-1°C
Humidity
100%
Weather condition
n/a

Description

International airport located at Kelowna, British Columbia, Canada.

Climatology

Semi-arid Steppe climate (Köppen climate classification BSk) - Little precipitation, hot summers and cold winters, sometimes with large changes in temperature in a 24 hour period.

Runways

Designator Length Width Surface Rops
16/34 2225 61 ASP Yes/Yes
Airport map: 
Aerial View: 

Accidents and Serious Incidents at or in the vicinity of CYLW

SKYbrary Partners:

Safety knowledge contributed by: